Time;durP1;ratioP1;P1;durP2;ratioP2;P2;SDS_P1;SDS_P2;PMS_P1;PMS_P2;Temp;Humidity;BMP_temperature;BMP_pressure;BME280_temperature;BME280_humidity;BME280_pressure;Samples;Min_cycle;Max_cycle;Signal;HPM_P1;HPM_P2
2022/10/24 00:02:05;;;;;;;32.47;17.67;;;14.00;99.90;;;;;;5093651;28;20550;-72
2022/10/24 00:04:36;;;;;;;36.00;18.17;;;14.00;99.90;;;;;;5095594;28;20455;-72
2022/10/24 00:07:03;;;;;;;33.50;16.87;;;14.00;99.90;;;;;;5095755;27;20475;-72
2022/10/24 00:09:30;;;;;;;26.17;16.60;;;14.00;99.90;;;;;;5125395;27;20786;-71
2022/10/24 00:11:57;;;;;;;26.53;16.87;;;14.00;99.90;;;;;;5099278;28;20526;-72
2022/10/24 00:14:24;;;;;;;32.63;17.10;;;14.00;99.90;;;;;;5110484;28;20926;-71
2022/10/24 00:16:50;;;;;;;34.47;16.47;;;14.00;99.90;;;;;;5108739;28;20447;-72
2022/10/24 00:19:19;;;;;;;32.03;17.63;;;14.00;99.90;;;;;;5115376;28;20443;-72
2022/10/24 00:21:46;;;;;;;35.73;18.50;;;14.00;99.90;;;;;;5094420;28;20475;-72
2022/10/24 00:24:13;;;;;;;28.50;16.43;;;14.00;99.90;;;;;;5095257;28;20450;-72
2022/10/24 00:26:39;;;;;;;30.77;17.87;;;14.00;99.90;;;;;;5094829;28;20470;-72
2022/10/24 00:29:06;;;;;;;47.53;18.97;;;14.00;99.90;;;;;;5095171;28;20853;-72
2022/10/24 00:31:33;;;;;;;37.90;17.67;;;13.90;99.90;;;;;;5093760;28;20510;-72
2022/10/24 00:34:00;;;;;;;32.67;17.80;;;13.90;99.90;;;;;;5095183;28;20937;-72
2022/10/24 00:36:29;;;;;;;33.27;18.53;;;13.90;99.90;;;;;;5094878;28;20459;-72
2022/10/24 00:38:55;;;;;;;35.90;16.63;;;13.80;99.90;;;;;;5095017;28;20451;-72
2022/10/24 00:41:24;;;;;;;30.63;18.03;;;13.80;99.90;;;;;;5093939;28;20489;-72
2022/10/24 00:44:11;;;;;;;39.47;18.33;;;13.70;99.90;;;;;;5094450;28;20455;-72
2022/10/24 00:46:38;;;;;;;33.90;17.17;;;13.70;99.90;;;;;;5094861;28;20967;-72
2022/10/24 00:49:05;;;;;;;30.57;16.43;;;13.70;99.90;;;;;;5094747;28;20927;-72
2022/10/24 00:51:34;;;;;;;30.93;16.70;;;13.70;99.90;;;;;;5094424;28;20876;-72
2022/10/24 00:54:04;;;;;;;28.83;15.90;;;13.70;99.90;;;;;;5094741;28;20455;-72
2022/10/24 00:56:34;;;;;;;29.40;14.73;;;13.60;99.90;;;;;;5095127;28;20447;-72
2022/10/24 00:59:03;;;;;;;30.00;15.90;;;13.60;99.90;;;;;;5115034;28;20495;-72
2022/10/24 01:01:30;;;;;;;31.50;14.57;;;13.50;99.90;;;;;;5097028;28;20977;-72
2022/10/24 01:03:57;;;;;;;23.83;14.20;;;13.50;99.90;;;;;;5112203;28;20447;-72
2022/10/24 01:06:38;;;;;;;21.80;12.90;;;13.40;99.90;;;;;;5114895;28;20446;-72
2022/10/24 01:09:16;;;;;;;25.50;14.10;;;13.30;99.90;;;;;;5132334;27;20942;-72
2022/10/24 01:11:56;;;;;;;30.07;13.83;;;13.30;99.90;;;;;;5102753;27;20471;-72
2022/10/24 01:14:35;;;;;;;23.23;14.07;;;13.20;99.90;;;;;;5093841;28;20868;-72
2022/10/24 01:17:09;;;;;;;32.53;14.50;;;13.20;99.90;;;;;;5093985;28;20450;-72
2022/10/24 01:20:10;;;;;;;25.83;14.40;;;13.20;99.90;;;;;;5093995;28;20451;-72
2022/10/24 01:22:47;;;;;;;29.53;14.27;;;13.10;99.90;;;;;;5093877;28;20477;-72
2022/10/24 01:25:16;;;;;;;34.23;15.10;;;13.10;99.90;;;;;;5099105;28;20470;-72
2022/10/24 01:27:55;;;;;;;25.23;14.80;;;13.20;99.90;;;;;;5094150;28;20484;-72
2022/10/24 01:30:24;;;;;;;24.10;12.90;;;13.20;99.90;;;;;;5099838;28;20428;-72
2022/10/24 01:32:58;;;;;;;21.57;14.00;;;13.20;99.90;;;;;;5093296;28;20480;-72
2022/10/24 01:35:34;;;;;;;28.57;14.60;;;13.10;99.90;;;;;;5094069;28;20452;-72
2022/10/24 01:38:08;;;;;;;24.80;15.20;;;13.10;99.90;;;;;;5093476;28;20446;-72
2022/10/24 01:40:41;;;;;;;37.47;15.20;;;13.10;99.90;;;;;;5092751;28;20463;-72
2022/10/24 01:43:12;;;;;;;49.33;15.00;;;13.00;99.90;;;;;;5093650;28;20474;-72
2022/10/24 01:45:43;;;;;;;32.90;15.60;;;13.00;99.90;;;;;;5092859;28;20450;-72
2022/10/24 01:48:13;;;;;;;27.30;15.83;;;13.00;99.90;;;;;;5101820;28;20595;-72
2022/10/24 01:50:42;;;;;;;29.13;14.93;;;13.00;99.90;;;;;;5101702;28;20454;-72
2022/10/24 01:53:11;;;;;;;41.97;15.60;;;13.00;99.90;;;;;;5094620;28;20475;-72
2022/10/24 01:55:39;;;;;;;32.63;15.50;;;12.90;99.90;;;;;;5093637;28;20451;-72
2022/10/24 01:58:07;;;;;;;31.47;16.57;;;12.90;99.90;;;;;;5096869;28;20454;-72
2022/10/24 02:00:34;;;;;;;41.20;17.80;;;12.90;99.90;;;;;;5102430;28;20501;-72
2022/10/24 02:03:08;;;;;;;30.00;15.80;;;13.00;99.90;;;;;;5102332;28;21002;-72
2022/10/24 02:05:40;;;;;;;30.00;16.30;;;13.00;99.90;;;;;;5094629;28;20983;-72
2022/10/24 02:08:10;;;;;;;32.03;15.70;;;13.00;99.90;;;;;;5111976;27;20493;-72
2022/10/24 02:10:41;;;;;;;33.13;16.63;;;13.00;99.90;;;;;;5103645;27;20500;-72
2022/10/24 02:13:13;;;;;;;27.10;15.40;;;13.10;99.90;;;;;;5110317;28;20482;-72
2022/10/24 02:15:44;;;;;;;28.87;15.70;;;13.00;99.90;;;;;;5109500;28;20451;-72
2022/10/24 02:18:13;;;;;;;33.10;16.50;;;13.00;99.90;;;;;;5113279;27;20454;-72
2022/10/24 02:20:48;;;;;;;33.30;16.10;;;13.00;99.90;;;;;;5105209;28;20822;-72
2022/10/24 02:23:21;;;;;;;29.83;14.73;;;12.90;99.90;;;;;;5092209;28;20466;-72
2022/10/24 02:25:52;;;;;;;33.20;16.30;;;12.80;99.90;;;;;;5093347;28;20455;-72
2022/10/24 02:28:23;;;;;;;30.50;15.03;;;12.80;99.90;;;;;;5094537;28;20536;-72
2022/10/24 02:30:56;;;;;;;21.80;14.33;;;12.90;99.90;;;;;;5103232;28;20462;-72
2022/10/24 02:33:25;;;;;;;31.50;14.10;;;12.90;99.90;;;;;;5092239;28;20995;-72
2022/10/24 02:35:53;;;;;;;40.27;15.50;;;12.90;99.90;;;;;;5092756;28;20510;-72
2022/10/24 02:38:24;;;;;;;26.03;13.80;;;13.00;99.90;;;;;;5092963;28;20462;-72
2022/10/24 02:40:52;;;;;;;33.97;13.73;;;13.00;99.90;;;;;;5092095;28;21016;-72
2022/10/24 02:43:21;;;;;;;29.00;14.00;;;13.00;99.90;;;;;;5092130;28;20471;-72
2022/10/24 02:45:50;;;;;;;34.13;13.93;;;13.10;99.90;;;;;;5092502;28;20505;-72
2022/10/24 02:48:21;;;;;;;27.13;12.70;;;13.10;99.90;;;;;;5092142;28;20475;-72
2022/10/24 02:50:49;;;;;;;27.60;12.57;;;13.20;99.90;;;;;;5092152;28;20458;-72
2022/10/24 02:53:18;;;;;;;23.50;11.17;;;13.20;99.90;;;;;;5091504;28;20549;-72
2022/10/24 02:55:45;;;;;;;25.30;11.50;;;13.20;99.90;;;;;;5092030;28;20447;-72
2022/10/24 02:58:12;;;;;;;28.33;11.87;;;13.20;99.90;;;;;;5092212;28;20493;-72
2022/10/24 03:00:39;;;;;;;34.23;11.70;;;13.30;99.90;;;;;;5091696;28;20808;-72
2022/10/24 03:03:05;;;;;;;18.90;9.50;;;13.20;99.90;;;;;;5091670;28;20472;-72
2022/10/24 03:05:32;;;;;;;21.13;10.07;;;13.20;99.90;;;;;;5092507;28;20465;-72
2022/10/24 03:08:00;;;;;;;19.60;10.83;;;13.10;99.90;;;;;;5108630;27;20485;-72
2022/10/24 03:10:27;;;;;;;24.47;12.03;;;13.10;99.90;;;;;;5126303;27;20484;-73
2022/10/24 03:12:54;;;;;;;20.43;10.20;;;13.00;99.90;;;;;;5095895;28;20475;-72
2022/10/24 03:15:20;;;;;;;24.93;10.40;;;13.00;99.90;;;;;;5092168;28;20452;-72
2022/10/24 03:17:48;;;;;;;25.70;10.50;;;13.00;99.90;;;;;;5092252;28;20477;-72
2022/10/24 03:20:15;;;;;;;19.73;10.30;;;13.00;99.90;;;;;;5098700;28;20537;-72
2022/10/24 03:22:41;;;;;;;18.33;9.93;;;12.90;99.90;;;;;;5099248;28;20482;-72
2022/10/24 03:25:10;;;;;;;15.43;9.23;;;12.90;99.90;;;;;;5104450;28;20443;-72
2022/10/24 03:27:37;;;;;;;18.20;9.27;;;12.80;99.90;;;;;;5093524;28;20452;-72
2022/10/24 03:30:05;;;;;;;28.67;10.90;;;12.80;99.90;;;;;;5092509;28;20446;-72
2022/10/24 03:32:32;;;;;;;22.83;10.13;;;12.80;99.90;;;;;;5095466;28;20478;-72
2022/10/24 03:34:59;;;;;;;26.87;10.80;;;12.90;99.90;;;;;;5091371;28;20450;-72
2022/10/24 03:37:26;;;;;;;24.50;10.50;;;12.90;99.90;;;;;;5092770;28;20497;-72
2022/10/24 03:39:53;;;;;;;18.73;9.50;;;12.90;99.90;;;;;;5091941;28;20858;-72
2022/10/24 03:42:21;;;;;;;25.03;10.23;;;12.90;99.90;;;;;;5092063;28;20467;-72
2022/10/24 03:44:48;;;;;;;20.67;9.00;;;12.90;99.90;;;;;;5091953;28;20470;-72
2022/10/24 03:47:14;;;;;;;25.53;10.23;;;12.80;99.90;;;;;;5091890;28;20458;-72
2022/10/24 03:49:41;;;;;;;24.13;10.27;;;12.80;99.90;;;;;;5091627;28;20489;-72
2022/10/24 03:52:08;;;;;;;27.13;10.20;;;12.80;99.90;;;;;;5094527;28;20463;-72
2022/10/24 03:54:35;;;;;;;23.20;9.20;;;12.70;99.90;;;;;;5099852;28;20449;-72
2022/10/24 03:57:02;;;;;;;17.13;9.23;;;12.70;99.90;;;;;;5105099;28;20577;-72
2022/10/24 03:59:30;;;;;;;18.17;10.33;;;12.70;99.90;;;;;;5100407;28;20455;-72
2022/10/24 04:01:58;;;;;;;27.73;9.50;;;12.70;99.90;;;;;;5095574;28;21012;-72
2022/10/24 04:04:25;;;;;;;24.73;9.60;;;12.70;99.90;;;;;;5092763;28;20542;-72
2022/10/24 04:06:52;;;;;;;20.43;9.03;;;12.70;99.90;;;;;;5111548;28;20456;-72
2022/10/24 04:09:19;;;;;;;17.07;9.27;;;12.70;99.90;;;;;;5107808;28;20478;-72
2022/10/24 04:11:46;;;;;;;19.50;9.10;;;12.70;99.90;;;;;;5091313;28;20472;-72
2022/10/24 04:14:13;;;;;;;18.80;8.80;;;12.70;99.90;;;;;;5099258;28;20824;-72
2022/10/24 04:16:41;;;;;;;21.80;8.10;;;12.70;99.90;;;;;;5091200;28;20504;-72
2022/10/24 04:19:09;;;;;;;18.87;8.53;;;12.70;99.90;;;;;;5090994;28;20492;-72
2022/10/24 04:21:36;;;;;;;19.43;8.50;;;12.70;99.90;;;;;;5091614;28;20481;-73
2022/10/24 04:24:02;;;;;;;28.30;9.40;;;12.80;99.90;;;;;;5099937;28;20446;-72
2022/10/24 04:26:30;;;;;;;20.23;8.30;;;12.80;99.90;;;;;;5109310;28;20554;-72
2022/10/24 04:28:56;;;;;;;19.00;9.80;;;12.80;99.90;;;;;;5110532;28;20482;-72
2022/10/24 04:31:23;;;;;;;29.90;8.90;;;12.90;99.90;;;;;;5100663;28;21005;-72
2022/10/24 04:33:51;;;;;;;25.07;8.77;;;13.00;99.90;;;;;;5090854;28;20458;-72
2022/10/24 04:36:18;;;;;;;18.50;8.80;;;13.00;99.90;;;;;;5091425;28;20447;-72
2022/10/24 04:38:45;;;;;;;25.07;8.20;;;13.10;99.90;;;;;;5106921;28;20889;-72
2022/10/24 04:41:11;;;;;;;30.73;8.70;;;13.30;99.90;;;;;;5098596;28;20451;-72
2022/10/24 04:43:38;;;;;;;30.07;8.07;;;13.50;99.90;;;;;;5099433;28;20437;-72
2022/10/24 04:46:05;;;;;;;26.10;7.77;;;13.70;99.90;;;;;;5089607;28;20979;-72
2022/10/24 04:48:32;;;;;;;29.10;7.60;;;13.90;99.90;;;;;;5107885;28;20857;-75
2022/10/24 04:51:00;;;;;;;29.07;7.70;;;13.90;99.90;;;;;;5106441;28;20473;-74
2022/10/24 04:53:27;;;;;;;29.50;7.40;;;13.90;99.90;;;;;;5111423;28;20470;-74
2022/10/24 04:55:53;;;;;;;19.17;6.43;;;14.00;99.90;;;;;;5105436;28;20462;-75
2022/10/24 04:58:20;;;;;;;20.73;6.57;;;14.20;99.90;;;;;;5094735;28;20472;-73
2022/10/24 05:00:49;;;;;;;26.30;7.23;;;14.30;99.90;;;;;;5094180;28;20482;-74
2022/10/24 05:03:16;;;;;;;18.43;6.47;;;14.40;99.90;;;;;;5094579;28;20446;-75
2022/10/24 05:05:43;;;;;;;21.77;6.17;;;14.40;99.90;;;;;;5103109;28;20927;-75
2022/10/24 05:08:12;;;;;;;18.43;7.27;;;14.50;99.90;;;;;;5123856;27;20480;-75
2022/10/24 05:10:38;;;;;;;25.47;6.43;;;14.50;99.90;;;;;;5112417;27;20459;-75
2022/10/24 05:13:05;;;;;;;17.63;6.40;;;14.50;99.90;;;;;;5094000;28;20467;-74
2022/10/24 05:15:32;;;;;;;23.13;6.57;;;14.50;99.90;;;;;;5099246;28;21005;-75
2022/10/24 05:17:59;;;;;;;19.60;6.63;;;14.60;99.90;;;;;;5114746;28;20438;-74
2022/10/24 05:20:26;;;;;;;21.33;7.43;;;14.40;99.90;;;;;;5103736;28;20502;-75
2022/10/24 05:22:53;;;;;;;25.27;6.33;;;14.40;99.90;;;;;;5103317;28;20475;-74
2022/10/24 05:25:21;;;;;;;18.10;6.87;;;14.50;99.90;;;;;;5094953;28;21010;-75
2022/10/24 05:27:48;;;;;;;19.10;6.07;;;14.40;99.90;;;;;;5113234;28;20425;-74
2022/10/24 05:30:14;;;;;;;23.10;6.90;;;14.30;99.90;;;;;;5114167;28;20493;-75
2022/10/24 05:32:41;;;;;;;24.63;7.03;;;14.30;99.90;;;;;;5095901;28;20571;-75
2022/10/24 05:35:09;;;;;;;22.23;5.90;;;14.30;99.90;;;;;;5093831;28;20459;-74
2022/10/24 05:37:37;;;;;;;14.50;6.70;;;14.30;99.90;;;;;;5100589;28;20446;-74
2022/10/24 05:40:05;;;;;;;18.73;6.70;;;14.20;99.90;;;;;;5107687;27;20586;-75
2022/10/24 05:42:33;;;;;;;20.67;6.33;;;14.20;99.90;;;;;;5107370;28;20483;-75
2022/10/24 05:44:59;;;;;;;17.13;7.27;;;14.10;99.90;;;;;;5108666;28;21013;-75
2022/10/24 05:47:26;;;;;;;24.07;6.50;;;14.20;99.90;;;;;;5109712;28;21462;-74
2022/10/24 05:49:53;;;;;;;17.67;6.33;;;14.20;99.90;;;;;;5109065;28;20485;-75
2022/10/24 05:52:20;;;;;;;17.87;6.07;;;14.20;99.90;;;;;;5108648;28;20469;-74
2022/10/24 05:54:46;;;;;;;21.40;6.87;;;14.20;99.90;;;;;;5109643;28;20477;-74
2022/10/24 05:57:13;;;;;;;21.97;6.90;;;14.20;99.90;;;;;;5109501;28;20455;-74
2022/10/24 05:59:41;;;;;;;22.97;6.50;;;14.20;99.90;;;;;;5108847;28;20927;-74
2022/10/24 06:02:10;;;;;;;27.73;6.80;;;14.30;99.90;;;;;;5108851;28;20470;-74
2022/10/24 06:04:37;;;;;;;21.93;6.57;;;14.20;99.90;;;;;;5109613;28;20428;-74
2022/10/24 06:07:04;;;;;;;17.10;6.73;;;14.30;99.90;;;;;;5109031;28;20495;-74
2022/10/24 06:09:30;;;;;;;19.53;7.30;;;14.30;99.90;;;;;;5109640;27;20461;-74
2022/10/24 06:11:57;;;;;;;20.30;7.27;;;14.40;99.90;;;;;;5108300;28;20466;-74
2022/10/24 06:14:24;;;;;;;21.57;7.17;;;14.30;99.90;;;;;;5108926;28;20877;-73
2022/10/24 06:16:52;;;;;;;31.53;7.40;;;14.40;99.90;;;;;;5109112;28;20856;-74
2022/10/24 06:19:20;;;;;;;28.13;7.60;;;14.40;99.90;;;;;;5109166;28;20518;-74
2022/10/24 06:21:48;;;;;;;22.80;7.30;;;14.40;99.90;;;;;;5107772;28;20462;-74
2022/10/24 06:24:14;;;;;;;18.77;6.17;;;14.50;99.90;;;;;;5109175;28;20474;-74
2022/10/24 06:26:41;;;;;;;26.17;7.63;;;14.60;99.90;;;;;;5107685;28;20454;-76
2022/10/24 06:29:08;;;;;;;20.17;7.10;;;14.60;99.90;;;;;;5108105;27;20480;-77
2022/10/24 06:31:36;;;;;;;19.33;7.20;;;14.60;99.90;;;;;;5108326;28;20474;-76
2022/10/24 06:34:04;;;;;;;22.70;7.30;;;14.60;99.90;;;;;;5108557;28;20453;-76
2022/10/24 06:36:30;;;;;;;13.20;6.63;;;14.70;99.90;;;;;;5108593;28;20439;-75
2022/10/24 06:38:57;;;;;;;27.67;7.90;;;14.60;99.90;;;;;;5108767;28;20441;-75
2022/10/24 06:41:24;;;;;;;24.00;7.23;;;14.60;99.90;;;;;;5107571;28;20462;-77
2022/10/24 06:43:52;;;;;;;21.57;7.30;;;14.60;99.90;;;;;;5108338;28;20956;-76
2022/10/24 06:46:22;;;;;;;22.27;6.20;;;14.70;99.90;;;;;;5108892;28;20450;-76
2022/10/24 06:48:48;;;;;;;21.47;6.30;;;14.70;99.90;;;;;;5108203;28;20474;-77
2022/10/24 06:51:16;;;;;;;37.53;7.70;;;14.70;99.90;;;;;;5108260;28;20454;-76
2022/10/24 06:53:43;;;;;;;14.70;6.23;;;14.80;99.90;;;;;;5108128;28;20453;-77
2022/10/24 06:56:11;;;;;;;24.80;7.20;;;14.80;99.90;;;;;;5109098;28;20450;-77
2022/10/24 06:58:38;;;;;;;18.43;6.97;;;14.80;99.90;;;;;;5108496;28;20956;-77
2022/10/24 07:01:09;;;;;;;20.00;6.90;;;14.90;99.90;;;;;;5107978;28;20459;-76
2022/10/24 07:03:35;;;;;;;22.00;6.60;;;15.00;99.90;;;;;;5107204;28;20560;-76
2022/10/24 07:06:06;;;;;;;31.67;7.10;;;15.00;99.90;;;;;;5106857;28;20872;-76
2022/10/24 07:08:34;;;;;;;30.43;7.13;;;15.00;99.90;;;;;;5106598;28;20964;-76
2022/10/24 07:11:01;;;;;;;20.00;6.33;;;15.10;99.90;;;;;;5106701;28;20455;-76
2022/10/24 07:13:29;;;;;;;16.87;5.60;;;15.10;99.90;;;;;;5107223;28;20441;-75
2022/10/24 07:15:55;;;;;;;19.40;5.77;;;15.20;99.90;;;;;;5107541;28;20802;-75
2022/10/24 07:18:22;;;;;;;18.47;5.60;;;15.20;99.90;;;;;;5108078;28;20872;-75
2022/10/24 07:20:49;;;;;;;17.70;6.27;;;15.30;99.90;;;;;;5107975;28;20443;-76
2022/10/24 07:23:16;;;;;;;15.30;5.53;;;15.40;99.90;;;;;;5106659;28;20469;-74
2022/10/24 07:25:44;;;;;;;21.37;5.70;;;15.40;99.90;;;;;;5108616;28;20939;-77
2022/10/24 07:28:11;;;;;;;18.90;5.73;;;15.40;99.90;;;;;;5107409;28;20503;-76
2022/10/24 07:30:39;;;;;;;12.90;5.10;;;15.50;99.90;;;;;;5107291;28;20490;-77
2022/10/24 07:33:06;;;;;;;20.13;7.10;;;15.40;99.90;;;;;;5106485;28;20466;-77
2022/10/24 07:35:32;;;;;;;13.17;5.40;;;15.50;99.90;;;;;;5108399;28;20413;-77
2022/10/24 07:37:59;;;;;;;19.43;6.10;;;15.40;99.90;;;;;;5107558;28;20461;-77
2022/10/24 07:40:26;;;;;;;19.53;5.40;;;15.50;99.90;;;;;;5107570;28;20442;-78
2022/10/24 07:42:54;;;;;;;25.60;7.17;;;15.40;99.90;;;;;;5107353;28;20475;-77
2022/10/24 07:45:20;;;;;;;25.40;6.73;;;15.40;99.90;;;;;;5107640;28;20425;-77
2022/10/24 07:47:47;;;;;;;16.60;5.93;;;15.40;99.90;;;;;;5107579;28;20959;-77
2022/10/24 07:50:16;;;;;;;16.07;5.80;;;15.40;99.90;;;;;;5107601;28;20470;-77
2022/10/24 07:52:42;;;;;;;17.20;5.63;;;15.40;99.90;;;;;;5105952;28;21002;-77
2022/10/24 07:55:09;;;;;;;22.77;6.60;;;15.40;99.90;;;;;;5107546;28;20503;-77
2022/10/24 07:57:36;;;;;;;23.03;5.47;;;15.40;99.90;;;;;;5108079;28;20446;-77
2022/10/24 08:00:06;;;;;;;21.00;6.57;;;15.40;99.90;;;;;;5107727;28;20450;-77
2022/10/24 08:02:33;;;;;;;11.90;6.00;;;15.40;99.90;;;;;;5107500;28;20462;-73
2022/10/24 08:04:59;;;;;;;11.53;5.20;;;15.40;99.90;;;;;;5106970;28;20458;-73
2022/10/24 08:07:26;;;;;;;23.13;6.17;;;15.60;99.90;;;;;;5111147;28;20451;-72
2022/10/24 08:09:53;;;;;;;14.30;5.47;;;15.70;99.90;;;;;;5108016;28;20970;-75
2022/10/24 08:12:19;;;;;;;22.87;5.60;;;15.80;99.90;;;;;;5106895;28;20498;-79
2022/10/24 08:14:46;;;;;;;14.50;5.50;;;15.80;99.90;;;;;;5107741;28;20482;-79
2022/10/24 08:17:17;;;;;;;13.80;5.50;;;15.80;99.90;;;;;;5107496;28;20429;-79
2022/10/24 08:19:44;;;;;;;14.70;5.37;;;15.80;99.90;;;;;;5107560;28;20884;-79
2022/10/24 08:22:10;;;;;;;17.63;6.40;;;15.80;99.90;;;;;;5109257;28;20477;-78
2022/10/24 08:24:37;;;;;;;18.93;6.47;;;15.70;99.90;;;;;;5112267;28;20500;-79
2022/10/24 08:27:04;;;;;;;19.97;5.67;;;15.80;99.90;;;;;;5111760;28;20451;-79
2022/10/24 08:29:31;;;;;;;11.83;5.47;;;15.80;99.90;;;;;;5111538;28;20850;-79
2022/10/24 08:31:57;;;;;;;17.47;5.80;;;15.80;99.90;;;;;;5110433;28;20466;-80
2022/10/24 08:34:25;;;;;;;21.13;6.27;;;15.80;99.90;;;;;;5111803;28;20458;-78
2022/10/24 08:36:52;;;;;;;33.17;8.53;;;15.80;99.90;;;;;;5112105;28;20457;-80
2022/10/24 08:39:20;;;;;;;19.60;5.40;;;15.80;99.90;;;;;;5111270;28;20527;-78
2022/10/24 08:41:50;;;;;;;18.23;6.00;;;15.80;99.90;;;;;;5110465;28;20441;-81
2022/10/24 08:44:21;;;;;;;14.37;5.43;;;15.80;99.90;;;;;;5110646;28;20516;-80
2022/10/24 08:46:52;;;;;;;24.53;6.20;;;15.80;99.90;;;;;;5111822;28;20935;-78
2022/10/24 08:49:27;;;;;;;11.80;5.23;;;15.80;99.90;;;;;;5110802;28;20459;-79
2022/10/24 08:51:57;;;;;;;21.20;5.73;;;15.80;99.90;;;;;;5110599;28;20935;-78
2022/10/24 08:54:29;;;;;;;14.07;5.57;;;15.80;99.90;;;;;;5110726;28;20428;-78
2022/10/24 08:56:58;;;;;;;23.80;5.63;;;15.90;99.90;;;;;;5111243;28;21824;-79
2022/10/24 08:59:29;;;;;;;12.57;5.23;;;16.00;99.90;;;;;;5111479;28;20425;-77
2022/10/24 09:02:00;;;;;;;9.40;5.20;;;16.00;99.90;;;;;;5110421;28;20463;-79
2022/10/24 09:04:38;;;;;;;13.00;5.37;;;16.10;99.90;;;;;;5111439;28;20462;-78
2022/10/24 09:07:05;;;;;;;21.93;5.33;;;16.10;99.90;;;;;;5111397;27;20970;-78
2022/10/24 09:09:38;;;;;;;25.07;5.53;;;16.20;99.90;;;;;;5110621;28;20486;-81
2022/10/24 09:12:10;;;;;;;19.23;5.00;;;16.20;99.90;;;;;;5110958;28;20474;-79
2022/10/24 09:14:40;;;;;;;18.03;6.17;;;16.30;99.90;;;;;;5111294;28;20435;-80
2022/10/24 09:17:12;;;;;;;13.23;4.80;;;16.40;99.90;;;;;;5110886;28;20425;-80
2022/10/24 09:19:42;;;;;;;16.60;5.67;;;16.50;99.90;;;;;;5111337;28;20422;-80
2022/10/24 09:22:12;;;;;;;21.60;5.37;;;16.60;99.90;;;;;;5110351;28;20442;-80
2022/10/24 09:24:44;;;;;;;20.37;4.80;;;16.80;99.90;;;;;;5110457;28;20421;-79
2022/10/24 09:27:14;;;;;;;16.23;5.40;;;17.00;99.90;;;;;;5110561;28;20450;-80
2022/10/24 09:29:42;;;;;;;12.50;5.20;;;17.30;99.90;;;;;;5109967;28;20449;-80
2022/10/24 09:32:17;;;;;;;24.63;4.87;;;17.70;99.90;;;;;;5109934;28;20510;-80
2022/10/24 09:34:46;;;;;;;15.77;4.93;;;18.20;99.90;;;;;;5109319;28;20424;-80
2022/10/24 09:37:32;;;;;;;19.13;5.13;;;18.30;99.90;;;;;;5110315;28;20934;-80
2022/10/24 09:40:14;;;;;;;14.13;4.80;;;18.40;99.90;;;;;;5110351;28;20435;-80
2022/10/24 09:42:49;;;;;;;16.63;4.83;;;18.30;99.90;;;;;;5109865;28;20444;-80
2022/10/24 09:45:27;;;;;;;13.80;4.97;;;18.20;99.90;;;;;;5110293;28;20420;-80
2022/10/24 09:47:56;;;;;;;12.17;5.30;;;18.10;99.90;;;;;;5110202;28;20424;-80
2022/10/24 09:50:25;;;;;;;10.30;4.53;;;18.10;99.90;;;;;;5109041;28;20482;-80
2022/10/24 09:52:56;;;;;;;18.73;4.67;;;18.00;99.90;;;;;;5110022;28;20441;-80
2022/10/24 09:55:27;;;;;;;15.20;5.37;;;18.10;99.90;;;;;;5109624;28;20927;-80
2022/10/24 09:57:56;;;;;;;16.40;5.10;;;18.00;99.90;;;;;;5110212;28;20413;-80
2022/10/24 10:00:25;;;;;;;19.13;4.57;;;18.00;99.90;;;;;;5109149;28;20482;-79
2022/10/24 10:03:06;;;;;;;21.30;4.33;;;17.90;99.90;;;;;;5109923;28;20494;-79
2022/10/24 10:05:46;;;;;;;12.77;4.67;;;18.00;99.90;;;;;;5110306;28;20429;-80
2022/10/24 10:08:18;;;;;;;14.80;4.97;;;18.10;99.90;;;;;;5110613;28;20417;-79
2022/10/24 10:10:55;;;;;;;13.57;4.70;;;18.20;99.90;;;;;;5108995;28;21018;-80
2022/10/24 10:13:24;;;;;;;17.70;5.00;;;18.20;99.90;;;;;;5109733;28;20506;-80
2022/10/24 10:15:53;;;;;;;15.90;4.60;;;18.50;99.90;;;;;;5110265;28;20444;-80
2022/10/24 10:18:31;;;;;;;17.40;4.23;;;18.70;99.90;;;;;;5109816;28;20453;-79
2022/10/24 10:21:07;;;;;;;13.17;4.60;;;18.90;99.90;;;;;;5109706;28;20525;-78
2022/10/24 10:23:37;;;;;;;17.67;5.83;;;19.10;99.90;;;;;;5109508;28;20470;-79
2022/10/24 10:26:19;;;;;;;15.47;5.70;;;19.20;99.90;;;;;;5109630;28;20450;-73
2022/10/24 10:28:53;;;;;;;13.10;4.77;;;19.40;99.90;;;;;;5109579;28;20495;-73
2022/10/24 10:31:23;;;;;;;14.87;5.07;;;19.40;99.90;;;;;;5108943;28;20483;-73
2022/10/24 10:33:59;;;;;;;13.77;5.23;;;19.50;99.90;;;;;;5108419;28;20451;-73
2022/10/24 10:36:33;;;;;;;19.60;5.20;;;19.60;99.90;;;;;;5109475;28;20457;-74
2022/10/24 10:39:20;;;;;;;17.43;5.67;;;19.70;99.90;;;;;;5108323;28;20453;-73
2022/10/24 10:41:49;;;;;;;12.60;4.50;;;19.70;99.90;;;;;;5108681;28;20459;-73
2022/10/24 10:44:34;;;;;;;19.13;4.83;;;19.80;99.90;;;;;;5108466;28;20447;-73
2022/10/24 10:47:11;;;;;;;17.93;4.83;;;19.90;99.90;;;;;;5108421;28;20447;-73
2022/10/24 10:49:40;;;;;;;15.23;4.80;;;20.00;99.90;;;;;;5108548;28;20496;-75
2022/10/24 10:52:12;;;;;;;28.87;5.93;;;20.00;99.90;;;;;;5108677;28;20462;-74
2022/10/24 10:55:00;;;;;;;11.10;5.87;;;19.70;99.90;;;;;;5108572;28;20443;-73
2022/10/24 10:57:34;;;;;;;10.57;4.00;;;19.40;99.90;;;;;;5109241;28;20439;-72
2022/10/24 11:00:07;;;;;;;18.60;4.80;;;19.40;99.90;;;;;;5108990;28;20439;-73
2022/10/24 11:02:58;;;;;;;18.20;5.70;;;19.60;99.90;;;;;;5108591;28;20474;-72
2022/10/24 11:05:39;;;;;;;20.43;4.40;;;19.60;99.90;;;;;;5107576;28;20874;-73
2022/10/24 11:08:23;;;;;;;24.23;4.77;;;19.60;99.90;;;;;;5108206;27;20451;-72
2022/10/24 11:10:54;;;;;;;15.60;4.90;;;19.60;99.90;;;;;;5107952;28;20989;-75
2022/10/24 11:13:26;;;;;;;15.43;4.50;;;19.60;99.90;;;;;;5108235;28;20467;-74
2022/10/24 11:15:58;;;;;;;9.70;4.77;;;19.30;99.90;;;;;;5109021;28;20472;-73
2022/10/24 11:18:29;;;;;;;14.40;5.40;;;19.30;99.90;;;;;;5108645;28;20443;-74
2022/10/24 11:21:00;;;;;;;14.00;4.90;;;19.30;99.90;;;;;;5104804;28;20515;-74
2022/10/24 11:23:33;;;;;;;16.23;5.40;;;19.20;99.90;;;;;;5107703;28;20460;-73
2022/10/24 11:26:05;;;;;;;18.43;5.33;;;19.10;99.90;;;;;;5108176;28;20447;-73
2022/10/24 11:28:38;;;;;;;19.63;5.13;;;19.00;99.90;;;;;;5108470;28;20462;-72
2022/10/24 11:31:08;;;;;;;13.33;4.77;;;19.00;99.90;;;;;;5105383;28;20940;-74
2022/10/24 11:33:39;;;;;;;11.33;4.43;;;18.90;99.90;;;;;;5106829;28;20445;-74
2022/10/24 11:36:16;;;;;;;14.43;4.47;;;18.70;99.90;;;;;;5107783;28;20425;-74
2022/10/24 11:38:49;;;;;;;13.93;4.50;;;18.70;99.90;;;;;;5107944;28;20454;-73
2022/10/24 11:41:26;;;;;;;9.93;3.70;;;19.00;99.90;;;;;;5106261;28;20442;-75
2022/10/24 11:43:56;;;;;;;17.73;4.80;;;19.10;99.90;;;;;;5107531;28;20458;-74
2022/10/24 11:46:27;;;;;;;10.97;4.67;;;19.30;99.90;;;;;;5107899;28;20462;-73
2022/10/24 11:48:57;;;;;;;10.33;4.60;;;19.40;99.90;;;;;;5105845;28;20449;-74
2022/10/24 11:51:31;;;;;;;14.50;4.00;;;19.40;99.90;;;;;;5106111;28;20466;-74
2022/10/24 11:54:02;;;;;;;12.63;4.37;;;19.40;99.90;;;;;;5107962;28;20449;-74
2022/10/24 11:56:39;;;;;;;24.30;3.90;;;19.80;99.90;;;;;;5106892;28;20454;-74
2022/10/24 11:59:07;;;;;;;8.30;3.43;;;20.10;99.90;;;;;;5107626;28;20454;-73
2022/10/24 12:02:00;;;;;;;9.43;3.43;;;20.50;99.90;;;;;;5106539;28;20445;-73
2022/10/24 12:04:54;;;;;;;7.60;2.50;;;20.70;99.90;;;;;;5096865;28;20445;-72
2022/10/24 12:07:53;;;;;;;6.93;3.20;;;20.80;99.90;;;;;;5107662;28;20456;-73
2022/10/24 12:10:45;;;;;;;13.40;2.80;;;21.10;99.90;;;;;;5106419;28;20425;-74
2022/10/24 12:13:32;;;;;;;10.30;2.83;;;21.40;99.90;;;;;;5107265;28;20470;-75
2022/10/24 12:16:11;;;;;;;5.27;2.60;;;21.20;99.90;;;;;;5107854;28;20451;-75
2022/10/24 12:18:41;;;;;;;12.23;2.93;;;21.20;99.90;;;;;;5106898;28;20471;-73
2022/10/24 12:21:11;;;;;;;9.20;2.60;;;21.20;99.90;;;;;;5106656;28;20438;-74
2022/10/24 12:23:39;;;;;;;6.50;2.73;;;21.00;99.90;;;;;;5106917;28;20475;-74
2022/10/24 12:26:17;;;;;;;7.80;2.40;;;21.10;99.90;;;;;;5107571;28;20451;-74
2022/10/24 12:28:53;;;;;;;9.80;2.30;;;20.90;99.90;;;;;;5107592;28;20447;-73
2022/10/24 12:31:23;;;;;;;8.00;2.73;;;20.60;99.90;;;;;;5105880;28;21058;-74
2022/10/24 12:34:26;;;;;;;7.07;2.63;;;20.70;99.90;;;;;;5106547;28;20450;-74
2022/10/24 12:37:30;;;;;;;5.37;2.60;;;20.80;99.90;;;;;;5107411;28;20458;-74
2022/10/24 12:39:57;;;;;;;8.07;2.50;;;21.10;99.90;;;;;;5106508;28;20435;-75
2022/10/24 12:42:56;;;;;;;12.63;3.07;;;21.30;99.90;;;;;;5104976;28;20471;-74
2022/10/24 12:45:29;;;;;;;9.00;2.30;;;21.50;99.90;;;;;;5107039;28;20533;-74
2022/10/24 12:48:27;;;;;;;5.23;2.00;;;21.60;99.90;;;;;;5107278;28;20479;-75
2022/10/24 12:51:02;;;;;;;6.27;2.47;;;21.30;99.90;;;;;;5105980;28;20490;-75
2022/10/24 12:54:01;;;;;;;8.17;2.60;;;21.20;99.90;;;;;;5107562;28;20545;-75